createdAt,value
2023-03-16T00:01:45.445Z,24.1
2023-03-16T00:07:39.472Z,24.1
2023-03-16T00:13:18.155Z,24
2023-03-16T00:19:12.229Z,24
2023-03-16T00:24:34.305Z,24
2023-03-16T00:29:56.767Z,24
2023-03-16T00:35:50.129Z,24
2023-03-16T00:41:42.806Z,23.9
2023-03-16T00:47:36.860Z,23.9
2023-03-16T00:52:58.957Z,23.9
2023-03-16T00:58:52.464Z,23.9
2023-03-16T01:04:30.153Z,23.9
2023-03-16T01:10:22.627Z,23.9
2023-03-16T01:15:28.518Z,23.9
2023-03-16T01:21:21.169Z,23.8
2023-03-16T01:26:27.237Z,23.8
2023-03-16T01:32:04.846Z,23.8
2023-03-16T01:37:59.187Z,23.8
2023-03-16T01:43:50.730Z,23.8
2023-03-16T01:49:14.422Z,23.8
2023-03-16T01:54:52.243Z,23.8
2023-03-16T02:00:44.996Z,23.7
2023-03-16T02:05:52.666Z,23.8
2023-03-16T02:11:30.928Z,23.9
2023-03-16T02:17:24.672Z,24.3
2023-03-16T02:23:02.054Z,24.6
2023-03-16T02:28:55.913Z,25
2023-03-16T02:34:49.205Z,25.5
2023-03-16T02:40:27.712Z,25.9
2023-03-16T02:46:05.656Z,26.4
2023-03-16T02:51:59.305Z,26.9
2023-03-16T02:57:51.850Z,27.4
2023-03-16T03:08:38.115Z,28.3
2023-03-16T03:14:30.132Z,28.7
2023-03-16T03:20:23.016Z,29.1
2023-03-16T03:26:00.151Z,29.6
2023-03-16T03:31:53.060Z,30.1
2023-03-16T03:37:46.524Z,30.4
2023-03-16T03:43:08.321Z,30.7
2023-03-16T03:48:30.622Z,30.9
2023-03-16T03:53:52.771Z,30.9
2023-03-16T03:59:17.265Z,31.1
2023-03-16T04:05:11.244Z,31.1
2023-03-16T04:11:04.581Z,31.2
2023-03-16T04:16:42.169Z,31.3
2023-03-16T04:22:19.359Z,31.3
2023-03-16T04:27:42.678Z,31.3
2023-03-16T04:33:04.467Z,31.4
2023-03-16T04:38:57.797Z,31.4
2023-03-16T04:44:35.481Z,31.4
2023-03-16T04:50:13.372Z,31.4
2023-03-16T04:55:51.133Z,31.4
2023-03-16T05:01:44.561Z,31.4
2023-03-16T05:07:43.630Z,31.4
2023-03-16T05:13:20.272Z,31.4
2023-03-16T05:18:42.480Z,31.4
2023-03-16T05:24:35.384Z,31.4
2023-03-16T05:30:12.727Z,31.4
2023-03-16T05:35:39.105Z,31.5
2023-03-16T05:41:32.221Z,31.4
2023-03-16T05:47:10.951Z,31.3
2023-03-16T05:52:48.874Z,31.3
2023-03-16T05:58:42.713Z,31.2
2023-03-16T06:04:36.468Z,31.1
2023-03-16T06:10:30.398Z,31.1
2023-03-16T06:16:23.426Z,30.9
2023-03-16T06:22:14.910Z,30.8
2023-03-16T06:28:09.825Z,30.7
2023-03-16T06:34:02.941Z,30.6
2023-03-16T06:39:58.467Z,30.5
2023-03-16T06:45:39.143Z,30.4
2023-03-16T06:51:33.506Z,30.3
2023-03-16T06:57:10.868Z,29.8
2023-03-16T07:03:03.495Z,28.3
2023-03-16T07:08:56.586Z,26.8
2023-03-16T07:14:51.910Z,25.5
2023-03-16T07:20:47.401Z,24.5
2023-03-16T07:26:40.777Z,23.7
2023-03-16T07:32:55.436Z,23.1
2023-03-16T07:38:49.029Z,22.6
2023-03-16T07:44:10.815Z,22.3
2023-03-16T07:50:02.816Z,22
2023-03-16T07:55:42.562Z,21.7
2023-03-16T08:01:51.699Z,21.4
2023-03-16T08:07:45.353Z,21.3
2023-03-16T08:19:19.461Z,20.9
2023-03-16T08:25:24.580Z,20.7
2023-03-16T08:31:18.506Z,20.4
2023-03-16T08:36:57.415Z,20.3
2023-03-16T08:42:31.116Z,20.1
2023-03-16T08:48:25.170Z,20
2023-03-16T08:54:02.341Z,19.9
2023-03-16T09:00:18.573Z,19.8
2023-03-16T09:06:12.817Z,19.7
2023-03-16T09:11:58.110Z,19.6
2023-03-16T09:17:52.021Z,19.6
2023-03-16T09:23:46.823Z,19.4
2023-03-16T09:29:43.585Z,19.4
2023-03-16T09:35:23.016Z,19.3
2023-03-16T09:41:20.180Z,19.3
2023-03-16T09:46:57.497Z,19.3
2023-03-16T09:52:28.285Z,19.2
2023-03-16T09:58:05.283Z,19.1
2023-03-16T10:03:43.285Z,19.1
2023-03-16T10:09:35.693Z,19.1
2023-03-16T10:15:28.580Z,19
2023-03-16T10:21:21.190Z,19
2023-03-16T10:27:13.384Z,19
2023-03-16T10:32:51.325Z,18.9
2023-03-16T10:38:31.579Z,18.9
2023-03-16T10:44:24.456Z,18.9
2023-03-16T10:50:20.011Z,18.9
2023-03-16T10:56:13.095Z,18.9
2023-03-16T11:02:06.028Z,18.9
2023-03-16T11:08:00.131Z,18.8
2023-03-16T11:14:06.434Z,18.8
2023-03-16T11:20:10.593Z,18.8
2023-03-16T11:26:03.549Z,18.8
2023-03-16T11:31:56.339Z,18.8
2023-03-16T11:38:08.332Z,18.8
2023-03-16T11:43:45.244Z,18.8
2023-03-16T11:49:38.135Z,18.8
2023-03-16T11:55:30.579Z,18.8
2023-03-16T12:01:17.031Z,18.8
2023-03-16T12:07:30.514Z,18.8
2023-03-16T12:13:07.936Z,18.8
2023-03-16T12:19:17.783Z,18.8
2023-03-16T12:25:10.878Z,18.8
2023-03-16T12:36:41.847Z,18.8
2023-03-16T12:42:33.831Z,18.8
2023-03-16T13:22:24.908Z,18.8
2023-03-16T14:12:40.267Z,18.8
2023-03-16T14:18:38.264Z,18.9
2023-03-16T14:24:39.084Z,19.1
2023-03-16T14:30:32.128Z,19.1
2023-03-16T14:36:26.920Z,19.1
2023-03-16T14:42:04.841Z,19
2023-03-16T14:47:58.646Z,19
2023-03-16T14:53:36.177Z,19
2023-03-16T14:59:29.481Z,18.9
2023-03-16T15:05:40.348Z,18.9
2023-03-16T15:11:35.846Z,18.9
2023-03-16T15:17:13.137Z,18.8
2023-03-16T15:23:04.754Z,18.9
2023-03-16T15:28:42.719Z,18.8
2023-03-16T15:34:35.506Z,18.8
2023-03-16T15:40:13.053Z,18.8
2023-03-16T15:46:17.648Z,18.8
2023-03-16T15:52:17.705Z,18.8
2023-03-16T15:58:32.152Z,18.8
2023-03-16T16:38:03.634Z,18.6
2023-03-16T16:48:18.854Z,18.8
2023-03-16T17:15:08.399Z,18.6
2023-03-16T17:20:47.106Z,18.6
2023-03-16T17:26:41.070Z,18.6
2023-03-16T17:32:03.954Z,18.6
2023-03-16T17:37:26.828Z,18.6
2023-03-16T17:43:10.270Z,18.5
2023-03-16T17:49:03.194Z,18.5
2023-03-16T17:54:56.345Z,18.4
2023-03-16T18:00:34.580Z,18.4
2023-03-16T18:06:14.732Z,18.4
2023-03-16T18:12:08.128Z,18.4
2023-03-16T18:17:31.507Z,18.4
2023-03-16T18:22:53.703Z,18.3
2023-03-16T18:28:48.448Z,18.3
2023-03-16T18:34:42.455Z,18.3
2023-03-16T18:40:35.348Z,18.3
2023-03-16T18:46:12.988Z,18.4
2023-03-16T18:51:51.276Z,18.5
2023-03-16T18:57:44.830Z,18.4
2023-03-16T19:03:06.260Z,18.4
2023-03-16T19:08:15.917Z,18.4
2023-03-16T19:13:37.416Z,18.4
2023-03-16T19:19:16.140Z,18.3
2023-03-16T19:24:37.968Z,18.3
2023-03-16T19:30:31.716Z,18.3
2023-03-16T19:36:07.419Z,18.3
2023-03-16T19:41:45.318Z,18.3
2023-03-16T19:47:39.293Z,18.3
2023-03-16T19:53:31.544Z,18.3
2023-03-16T19:59:24.771Z,18.2
2023-03-16T20:05:18.245Z,18.2
2023-03-16T20:10:56.139Z,18.1
2023-03-16T20:16:49.906Z,18.1
2023-03-16T20:22:12.797Z,18.2
2023-03-16T20:27:33.869Z,18.3
2023-03-16T20:33:27.209Z,18.8
2023-03-16T20:39:05.689Z,19.6
2023-03-16T20:44:44.007Z,20.6
2023-03-16T20:50:21.465Z,21.6
2023-03-16T20:55:42.823Z,22.6
2023-03-16T21:01:36.247Z,23.6
2023-03-16T21:07:29.643Z,24.8
2023-03-16T21:13:31.572Z,25.8
2023-03-16T21:18:54.385Z,26.4
2023-03-16T21:24:47.181Z,26.8
2023-03-16T21:30:40.726Z,27
2023-03-16T21:36:33.859Z,27.2
2023-03-16T21:42:28.476Z,27.3
2023-03-16T21:48:22.499Z,27.4
2023-03-16T21:54:15.378Z,27.4
2023-03-16T21:59:40.460Z,27.4
2023-03-16T22:05:46.040Z,27.5
2023-03-16T22:11:39.229Z,27.6
2023-03-16T22:17:16.747Z,27.6
2023-03-16T22:23:10.114Z,27.6
2023-03-16T22:28:47.594Z,27.6
2023-03-16T22:34:24.382Z,27.6
2023-03-16T22:40:17.997Z,27.6
2023-03-16T22:46:09.692Z,27.6
2023-03-16T22:51:47.247Z,27.6
2023-03-16T22:57:41.307Z,27.6
2023-03-16T23:03:35.003Z,27.6
2023-03-16T23:09:27.970Z,27.6
2023-03-16T23:15:08.127Z,27.5
2023-03-16T23:21:14.321Z,27.5
2023-03-16T23:27:14.520Z,27.5
2023-03-16T23:32:53.005Z,27.4
2023-03-16T23:38:30.474Z,27.4
2023-03-16T23:44:07.748Z,27.4
2023-03-16T23:49:45.585Z,27.3
2023-03-16T23:55:22.739Z,27.3
